createdAt,value
2019-03-03T11:22:02.916Z,81.20
2019-03-03T11:24:39.510Z,80.13
2019-03-03T11:27:42.353Z,80.30
2019-03-03T11:28:51.134Z,79.60
2019-03-03T11:30:00.347Z,79.55
2019-03-03T11:31:18.553Z,80.15
2019-03-03T11:32:27.221Z,79.81
2019-03-03T11:33:36.270Z,79.26
2019-03-03T11:34:45.098Z,79.35
2019-03-03T11:36:06.082Z,79.14
2019-03-03T11:37:21.674Z,78.99
2019-03-03T11:38:36.837Z,79.00
2019-03-03T11:39:42.861Z,78.10
2019-03-03T11:41:03.689Z,78.03
2019-03-03T11:42:12.338Z,78.71
2019-03-03T11:43:21.310Z,77.68
2019-03-03T11:44:27.289Z,78.24
2019-03-03T11:45:36.556Z,77.69
2019-03-03T11:46:42.815Z,77.02
2019-03-03T11:48:03.877Z,77.06
2019-03-03T11:49:08.183Z,77.11
2019-03-03T11:50:14.210Z,77.39
2019-03-03T11:51:20.492Z,76.67
2019-03-03T11:52:32.652Z,76.52
2019-03-03T11:53:54.458Z,76.73
2019-03-03T11:55:16.636Z,76.09
2019-03-03T11:56:34.140Z,76.39
2019-03-03T11:57:49.124Z,76.13
2019-03-03T11:58:58.049Z,76.05
2019-03-03T12:00:19.633Z,76.23
2019-03-03T12:01:34.720Z,76.86
2019-03-03T12:02:53.963Z,75.98
2019-03-03T12:04:12.558Z,76.64
2019-03-03T12:05:35.140Z,76.72
2019-03-03T12:06:57.383Z,76.32
2019-03-03T12:08:21.297Z,75.70
2019-03-03T12:09:35.889Z,76.37
2019-03-03T12:10:41.798Z,75.81
2019-03-03T12:11:53.720Z,76.15
2019-03-03T12:13:15.505Z,76.45
2019-03-03T12:14:34.816Z,76.49
2019-03-03T12:15:47.043Z,76.57
2019-03-03T12:16:58.330Z,76.36
2019-03-03T12:18:12.802Z,75.64
2019-03-03T12:19:21.304Z,75.89
2019-03-03T12:20:39.185Z,76.41
2019-03-03T12:21:47.823Z,76.93
2019-03-03T12:23:09.674Z,77.02
2019-03-03T12:24:33.782Z,78.03
2019-03-03T12:25:39.660Z,79.06
2019-03-03T12:26:50.705Z,80.07
2019-03-03T12:28:13.007Z,81.22
2019-03-03T12:29:30.807Z,80.45
2019-03-03T12:30:51.634Z,80.89
2019-03-03T12:32:00.240Z,81.46
2019-03-03T12:33:15.489Z,81.89
2019-03-03T12:34:30.457Z,81.48
2019-03-03T12:35:54.479Z,82.02
2019-03-03T12:37:00.517Z,82.20
2019-03-03T12:38:06.702Z,81.95
2019-03-03T12:39:22.032Z,81.81
2019-03-03T12:40:31.014Z,81.76
2019-03-03T12:41:52.996Z,81.93
2019-03-03T12:43:05.008Z,82.04
2019-03-03T12:44:11.174Z,82.01
2019-03-03T12:45:31.907Z,81.43
2019-03-03T12:46:53.974Z,81.73
2019-03-03T12:48:00.403Z,81.30
2019-03-03T12:49:09.604Z,81.19
2019-03-03T12:50:32.050Z,81.46
2019-03-03T12:51:44.127Z,81.69
2019-03-03T12:52:50.093Z,82.17
2019-03-03T12:54:00.066Z,81.85
2019-03-03T12:55:08.324Z,82.09
2019-03-03T12:56:17.325Z,81.78
2019-03-03T12:57:39.549Z,81.49
2019-03-03T12:58:57.404Z,81.69
2019-03-03T13:00:08.541Z,81.43
2019-03-03T13:01:23.825Z,81.66
2019-03-03T13:02:36.080Z,81.42
2019-03-03T13:03:48.035Z,82.37
2019-03-03T13:05:02.797Z,82.05
2019-03-03T13:06:09.111Z,81.94
2019-03-03T13:07:17.775Z,81.78
2019-03-03T13:08:32.933Z,81.63
2019-03-03T13:09:44.929Z,81.45
2019-03-03T13:11:05.940Z,80.36
2019-03-03T13:12:26.780Z,80.70
2019-03-03T13:13:38.815Z,80.31
2019-03-03T13:14:50.340Z,80.40
2019-03-03T13:15:56.604Z,80.15
2019-03-03T13:17:19.257Z,80.25
2019-03-03T13:18:29.222Z,80.53
2019-03-03T13:19:46.950Z,80.53
2019-03-03T13:21:04.830Z,80.37
2019-03-03T13:22:22.543Z,79.71
2019-03-03T13:23:31.127Z,79.59
2019-03-03T13:24:41.482Z,79.95
2019-03-03T13:25:56.298Z,80.12
2019-03-03T13:27:11.523Z,79.87
2019-03-03T13:28:32.971Z,80.11
2019-03-03T13:29:55.079Z,78.90
2019-03-03T13:31:03.154Z,78.88
2019-03-03T13:32:21.340Z,79.00
2019-03-03T13:33:30.052Z,78.88
2019-03-03T13:34:39.857Z,79.07
2019-03-03T13:35:48.905Z,79.14
2019-03-03T13:36:55.840Z,79.67
2019-03-03T13:38:09.398Z,79.89
2019-03-03T13:39:18.530Z,79.64
2019-03-03T13:40:27.029Z,79.81
2019-03-03T13:41:51.220Z,80.09
2019-03-03T13:42:58.571Z,80.75
2019-03-03T13:44:05.889Z,80.75
2019-03-03T13:45:12.204Z,81.35
2019-03-03T13:46:16.850Z,81.21
2019-03-03T13:47:21.433Z,81.54
2019-03-03T13:48:26.255Z,81.22
2019-03-03T13:49:31.594Z,81.69
2019-03-03T13:50:38.782Z,81.46
2019-03-03T13:51:43.881Z,81.83
2019-03-03T13:52:51.150Z,81.83
2019-03-03T13:53:56.692Z,82.24
2019-03-03T13:55:03.971Z,82.02
2019-03-03T13:56:08.874Z,81.68
2019-03-03T13:57:13.618Z,82.03
2019-03-03T13:58:18.630Z,82.28
2019-03-03T13:59:22.904Z,82.00
2019-03-03T14:00:27.172Z,82.02
2019-03-03T14:01:31.433Z,81.40
2019-03-03T14:02:35.712Z,81.84
2019-03-03T14:03:40.278Z,81.40
2019-03-03T14:04:44.544Z,81.90
2019-03-03T14:05:48.982Z,81.61
2019-03-03T14:06:53.277Z,80.88
2019-03-03T14:08:00.320Z,80.97
2019-03-03T14:09:10.462Z,81.29
2019-03-03T14:10:17.506Z,81.00
2019-03-03T14:11:31.150Z,80.93
2019-03-03T14:12:35.808Z,80.98
2019-03-03T14:13:40.131Z,80.38
2019-03-03T14:14:47.754Z,80.80
2019-03-03T14:15:52.013Z,81.30
2019-03-03T14:16:56.573Z,81.76
2019-03-03T14:18:00.848Z,81.14
2019-03-03T14:19:05.438Z,81.31
2019-03-03T14:20:18.088Z,81.03
2019-03-03T14:21:23.376Z,81.14
2019-03-03T14:22:27.760Z,80.61
2019-03-03T14:23:32.392Z,80.38
2019-03-03T14:24:37.034Z,80.60
2019-03-03T14:25:41.499Z,80.70
2019-03-03T14:26:46.104Z,80.69
2019-03-03T14:27:50.709Z,81.00
2019-03-03T14:28:55.383Z,81.24
2019-03-03T14:30:02.774Z,80.88
2019-03-03T14:31:08.006Z,81.05
2019-03-03T14:32:12.603Z,80.63
2019-03-03T14:33:20.051Z,80.97
2019-03-03T14:34:24.511Z,81.30
2019-03-03T14:35:29.087Z,80.60
2019-03-03T14:36:35.916Z,81.11
2019-03-03T14:37:40.173Z,80.25
2019-03-03T14:38:44.462Z,80.64
2019-03-03T14:39:51.777Z,80.67
2019-03-03T14:40:56.334Z,79.72
2019-03-03T14:42:00.592Z,80.10
2019-03-03T14:43:08.090Z,79.42
2019-03-03T14:44:15.292Z,79.02
2019-03-03T14:45:20.208Z,78.44
2019-03-03T14:46:24.842Z,78.83
2019-03-03T14:47:29.581Z,77.76
2019-03-03T14:48:34.238Z,77.91
2019-03-03T14:49:41.716Z,77.65
2019-03-03T14:50:46.007Z,77.03
2019-03-03T14:51:50.264Z,77.21
2019-03-03T14:52:56.493Z,77.29
2019-03-03T14:54:02.213Z,78.18
2019-03-03T14:55:09.997Z,77.89
2019-03-03T14:56:14.646Z,78.16
2019-03-03T14:57:19.204Z,78.33
2019-03-03T14:58:23.458Z,78.72
2019-03-03T14:59:27.878Z,79.00
2019-03-03T15:00:34.898Z,79.46
2019-03-03T15:01:42.451Z,80.01
2019-03-03T15:02:46.764Z,80.40
2019-03-03T15:03:51.054Z,81.36
2019-03-03T15:04:55.376Z,82.53
2019-03-03T15:05:59.672Z,83.53
2019-03-03T15:07:07.440Z,84.12
2019-03-03T15:08:12.278Z,84.91
2019-03-03T15:09:21.104Z,85.50
2019-03-03T15:10:26.045Z,86.06
2019-03-03T15:11:30.683Z,86.29
2019-03-03T15:12:35.246Z,87.36
2019-03-03T15:13:42.542Z,87.97
2019-03-03T15:14:47.210Z,88.41
2019-03-03T15:15:51.515Z,88.46
2019-03-03T15:16:55.770Z,89.02
2019-03-03T15:18:00.331Z,89.30
2019-03-03T15:19:04.891Z,89.74
2019-03-03T15:20:14.918Z,90.17
2019-03-03T15:21:25.143Z,89.99
2019-03-03T15:22:28.030Z,90.11
2019-03-03T15:23:32.354Z,90.46
2019-03-03T15:24:36.624Z,90.92
2019-03-03T15:25:40.910Z,90.99
2019-03-03T15:26:45.177Z,90.95
2019-03-03T15:27:52.672Z,91.34
2019-03-03T15:29:00.099Z,91.73
2019-03-03T15:30:10.721Z,91.74
2019-03-03T15:31:15.075Z,92.05
2019-03-03T15:32:19.417Z,92.03
2019-03-03T15:33:23.683Z,92.34
2019-03-03T15:34:28.006Z,92.63
2019-03-03T15:35:32.611Z,92.55
2019-03-03T15:36:36.885Z,92.93
2019-03-03T15:37:41.171Z,92.94
2019-03-03T15:38:48.608Z,93.15
2019-03-03T15:39:52.922Z,93.42
2019-03-03T15:40:57.196Z,93.15
2019-03-03T15:42:04.727Z,93.27
2019-03-03T15:43:08.973Z,93.31
2019-03-03T15:44:16.282Z,93.14
2019-03-03T15:45:27.902Z,93.23
2019-03-03T15:46:32.175Z,93.37
2019-03-03T15:47:39.368Z,93.39
2019-03-03T15:48:47.038Z,93.68
2019-03-03T15:49:51.296Z,93.74
2019-03-03T15:50:55.604Z,93.79
2019-03-03T15:52:00.263Z,93.64
2019-03-03T15:53:04.885Z,93.44
2019-03-03T15:54:09.178Z,93.14
2019-03-03T15:55:20.098Z,93.41
2019-03-03T15:56:27.116Z,93.53
2019-03-03T15:57:31.374Z,93.68
2019-03-03T15:58:35.652Z,93.58
2019-03-03T15:59:42.788Z,93.67
2019-03-03T16:00:47.581Z,93.67
2019-03-03T16:01:51.995Z,93.40
2019-03-03T16:02:56.570Z,93.29
2019-03-03T16:04:05.043Z,93.35
2019-03-03T16:05:12.331Z,93.25
2019-03-03T16:06:16.647Z,93.17
2019-03-03T16:07:20.909Z,93.24
2019-03-03T16:08:25.180Z,93.19
2019-03-03T16:09:29.447Z,93.42
2019-03-03T16:10:33.751Z,93.37
2019-03-03T16:11:38.322Z,93.33
2019-03-03T16:12:42.584Z,93.33
2019-03-03T16:13:46.835Z,93.38
2019-03-03T16:14:51.632Z,93.28
2019-03-03T16:15:59.147Z,93.19
2019-03-03T16:17:04.380Z,93.47
2019-03-03T16:18:08.821Z,93.45
2019-03-03T16:19:13.085Z,93.48
2019-03-03T16:20:24.758Z,93.33
2019-03-03T16:21:31.690Z,93.43
2019-03-03T16:22:36.245Z,93.59
2019-03-03T16:23:43.293Z,93.26
2019-03-03T16:24:47.562Z,93.30
2019-03-03T16:25:52.895Z,93.31
2019-03-03T16:26:57.536Z,93.19
2019-03-03T16:28:01.784Z,93.04
2019-03-03T16:29:06.058Z,93.33
2019-03-03T16:30:17.827Z,93.08
2019-03-03T16:31:20.982Z,93.30
2019-03-03T16:32:25.331Z,93.52
2019-03-03T16:33:35.338Z,93.26
2019-03-03T16:34:42.417Z,93.36
2019-03-03T16:35:46.724Z,93.22
2019-03-03T16:36:53.200Z,93.35
2019-03-03T16:37:57.482Z,93.41
2019-03-03T16:39:02.105Z,93.53
2019-03-03T16:40:13.638Z,93.22
2019-03-03T16:41:17.882Z,93.38
2019-03-03T16:42:22.165Z,93.22
2019-03-03T16:43:29.184Z,93.01
2019-03-03T16:44:37.758Z,93.21
2019-03-03T16:45:46.036Z,93.31
2019-03-03T16:46:50.597Z,93.25
2019-03-03T16:47:54.892Z,93.59
2019-03-03T16:48:59.171Z,93.76
2019-03-03T16:50:03.499Z,93.82
2019-03-03T16:51:09.741Z,93.96
2019-03-03T16:52:14.355Z,93.97
2019-03-03T16:53:18.639Z,93.38
2019-03-03T16:54:25.974Z,93.44
2019-03-03T16:55:30.223Z,93.41
2019-03-03T16:56:40.575Z,93.50
2019-03-03T16:57:44.803Z,93.43
2019-03-03T16:58:49.340Z,93.22
2019-03-03T16:59:53.609Z,93.18
2019-03-03T17:01:00.674Z,93.31
2019-03-03T17:02:05.984Z,93.16
2019-03-03T17:03:10.576Z,93.49
2019-03-03T17:04:14.843Z,93.42
2019-03-03T17:05:21.777Z,93.47
2019-03-03T17:06:26.441Z,93.59
2019-03-03T17:07:30.956Z,93.49
2019-03-03T17:08:35.199Z,93.48
2019-03-03T17:09:39.773Z,93.46
2019-03-03T17:10:44.407Z,93.53
2019-03-03T17:11:48.997Z,93.53
2019-03-03T17:12:53.830Z,93.71
2019-03-03T17:13:58.177Z,93.83
2019-03-03T17:15:02.824Z,93.43
2019-03-03T17:16:07.394Z,92.95
2019-03-03T17:17:11.963Z,93.04
2019-03-03T17:18:16.558Z,93.05
2019-03-03T17:19:21.212Z,93.06
2019-03-03T17:20:25.578Z,93.22
2019-03-03T17:21:30.257Z,92.69
2019-03-03T17:22:35.056Z,92.87
2019-03-03T17:23:42.615Z,93.09
2019-03-03T17:24:46.882Z,93.50
2019-03-03T17:25:51.516Z,93.59
2019-03-03T17:26:58.469Z,93.58
2019-03-03T17:28:02.712Z,93.42
2019-03-03T17:29:07.246Z,93.06
2019-03-03T17:30:17.100Z,92.73
2019-03-03T17:31:21.468Z,92.64
2019-03-03T17:32:25.735Z,92.81
2019-03-03T17:33:49.781Z,93.14
2019-03-03T17:34:45.141Z,92.85
2019-03-03T17:35:49.400Z,92.90
2019-03-03T17:36:53.684Z,92.59
2019-03-03T17:38:01.077Z,92.67
2019-03-03T17:39:05.807Z,92.73
2019-03-03T17:40:12.864Z,92.84
2019-03-03T17:41:17.126Z,93.24
2019-03-03T17:42:21.708Z,93.21
2019-03-03T17:43:26.074Z,93.03
2019-03-03T17:44:30.310Z,93.11
2019-03-03T17:45:34.611Z,93.05
2019-03-03T17:46:38.900Z,93.14
2019-03-03T17:47:45.669Z,93.12
2019-03-03T17:48:50.210Z,92.96
2019-03-03T17:49:54.766Z,92.95
2019-03-03T17:50:59.034Z,93.20
2019-03-03T17:52:03.307Z,93.07
2019-03-03T17:53:07.660Z,93.12
2019-03-03T17:54:12.240Z,93.23
2019-03-03T17:55:17.064Z,93.15
2019-03-03T17:56:21.618Z,93.22
2019-03-03T17:57:26.385Z,92.88
2019-03-03T17:58:30.643Z,92.94
2019-03-03T17:59:35.123Z,92.77
2019-03-03T18:00:41.832Z,92.75
2019-03-03T18:01:46.113Z,92.98
2019-03-03T18:02:50.366Z,93.02
2019-03-03T18:03:54.622Z,92.80
2019-03-03T18:04:59.184Z,92.63
2019-03-03T18:06:06.742Z,92.79
2019-03-03T18:07:11.092Z,92.53
2019-03-03T18:08:15.338Z,92.60
2019-03-03T18:09:22.791Z,92.60
2019-03-03T18:10:27.202Z,92.49
2019-03-03T18:11:31.644Z,92.35
2019-03-03T18:12:35.917Z,92.35
2019-03-03T18:13:40.523Z,92.37
2019-03-03T18:14:44.773Z,92.36
2019-03-03T18:15:52.144Z,92.23
2019-03-03T18:16:57.393Z,92.26
2019-03-03T18:18:01.661Z,92.40
2019-03-03T18:19:05.973Z,92.58
2019-03-03T18:20:13.165Z,92.50
2019-03-03T18:21:17.422Z,92.43
2019-03-03T18:22:22.081Z,92.57
2019-03-03T18:23:26.348Z,92.47
2019-03-03T18:24:33.337Z,92.64
2019-03-03T18:25:37.600Z,92.70
2019-03-03T18:26:41.870Z,92.65
2019-03-03T18:27:46.141Z,92.75
2019-03-03T18:28:50.392Z,93.04
2019-03-03T18:29:57.536Z,92.84
2019-03-03T18:31:02.875Z,92.68
2019-03-03T18:32:07.180Z,92.86
2019-03-03T18:33:14.365Z,92.83
2019-03-03T18:34:18.707Z,92.77
2019-03-03T18:35:23.024Z,92.93
2019-03-03T18:36:27.279Z,92.66
2019-03-03T18:37:31.548Z,92.43
2019-03-03T18:38:35.809Z,92.62
2019-03-03T18:39:40.358Z,92.76
2019-03-03T18:40:44.609Z,92.70
2019-03-03T18:41:48.870Z,92.66
2019-03-03T18:42:53.205Z,92.53
2019-03-03T18:43:57.484Z,92.70
2019-03-03T18:45:02.722Z,92.27
2019-03-03T18:46:07.300Z,92.16
2019-03-03T18:47:11.928Z,92.00
2019-03-03T18:48:16.189Z,91.98
2019-03-03T18:49:20.449Z,91.72
2019-03-03T18:50:27.106Z,92.17
2019-03-03T18:51:31.653Z,92.18
2019-03-03T18:52:35.952Z,92.16
2019-03-03T18:53:40.671Z,92.05
2019-03-03T18:54:44.930Z,91.93
2019-03-03T18:55:49.187Z,92.07
2019-03-03T18:56:53.447Z,92.32
2019-03-03T18:57:58.018Z,92.07
2019-03-03T18:59:02.567Z,92.16
2019-03-03T19:00:10.445Z,92.02
2019-03-03T19:01:15.184Z,92.12
2019-03-03T19:02:19.539Z,92.10
2019-03-03T19:03:24.311Z,92.08
2019-03-03T19:04:29.137Z,92.15
2019-03-03T19:05:33.423Z,92.18
2019-03-03T19:06:37.678Z,92.09
2019-03-03T19:07:44.698Z,92.09
2019-03-03T19:08:53.191Z,92.32
2019-03-03T19:09:57.440Z,91.96
2019-03-03T19:11:01.764Z,92.08
2019-03-03T19:12:06.094Z,91.65
2019-03-03T19:13:10.383Z,91.40
2019-03-03T19:14:14.635Z,91.46
2019-03-03T19:15:22.567Z,91.46
2019-03-03T19:16:26.818Z,91.49
2019-03-03T19:17:31.124Z,91.61
2019-03-03T19:18:35.365Z,91.79
2019-03-03T19:19:39.622Z,91.46
2019-03-03T19:20:46.838Z,91.65
2019-03-03T19:21:51.112Z,91.67
2019-03-03T19:22:55.696Z,91.68
2019-03-03T19:24:00.277Z,91.42
2019-03-03T19:25:07.052Z,91.62
2019-03-03T19:26:14.731Z,91.45
2019-03-03T19:27:18.993Z,91.07
2019-03-03T19:28:23.658Z,91.18
2019-03-03T19:29:27.919Z,91.32
2019-03-03T19:30:32.185Z,91.14
2019-03-03T19:31:36.484Z,90.88
2019-03-03T19:32:44.058Z,90.84
2019-03-03T19:33:51.831Z,90.78
2019-03-03T19:34:58.871Z,90.38
2019-03-03T19:36:03.767Z,90.63
2019-03-03T19:37:08.340Z,90.82
2019-03-03T19:38:12.641Z,90.87
2019-03-03T19:39:16.890Z,90.52
2019-03-03T19:40:21.197Z,90.23
2019-03-03T19:41:26.002Z,90.53
2019-03-03T19:42:30.909Z,90.73
2019-03-03T19:43:38.573Z,90.58
2019-03-03T19:44:42.833Z,90.93
2019-03-03T19:45:50.092Z,90.91
2019-03-03T19:46:54.394Z,91.31
2019-03-03T19:47:58.662Z,91.29
2019-03-03T19:49:03.241Z,91.29
2019-03-03T19:50:10.584Z,91.28
2019-03-03T19:51:15.856Z,90.44
2019-03-03T19:52:20.226Z,90.53
2019-03-03T19:53:24.809Z,90.26
2019-03-03T19:54:29.324Z,90.38
2019-03-03T19:55:33.575Z,90.46
2019-03-03T19:56:38.817Z,90.39
2019-03-03T19:57:43.377Z,90.04
2019-03-03T19:58:47.936Z,90.40
2019-03-03T19:59:52.601Z,90.39
2019-03-03T20:00:56.878Z,90.49
2019-03-03T20:02:02.382Z,90.46
2019-03-03T20:03:06.770Z,90.10
2019-03-03T20:04:11.147Z,90.25
2019-03-03T20:05:15.552Z,90.00
2019-03-03T20:06:20.165Z,90.11
2019-03-03T20:07:24.725Z,90.28
2019-03-03T20:08:29.066Z,89.80
2019-03-03T20:09:36.383Z,89.50
2019-03-03T20:10:40.760Z,89.43
2019-03-03T20:11:48.073Z,89.55
2019-03-03T20:12:52.319Z,89.17
2019-03-03T20:13:56.578Z,89.26
2019-03-03T20:15:05.673Z,89.03
2019-03-03T20:16:09.925Z,88.63
2019-03-03T20:17:14.199Z,88.80
2019-03-03T20:18:18.464Z,88.77
2019-03-03T20:19:22.806Z,89.08
2019-03-03T20:20:27.050Z,88.86
2019-03-03T20:21:31.296Z,88.45
2019-03-03T20:22:37.595Z,88.49
2019-03-03T20:23:42.043Z,88.34
2019-03-03T20:24:49.153Z,88.42
2019-03-03T20:25:53.391Z,88.76
2019-03-03T20:26:58.057Z,87.96
2019-03-03T20:28:05.308Z,88.29
2019-03-03T20:29:09.664Z,88.28
2019-03-03T20:30:23.312Z,88.04
2019-03-03T20:31:27.994Z,88.12
2019-03-03T20:32:32.605Z,87.96
2019-03-03T20:33:36.854Z,88.00
2019-03-03T20:34:41.124Z,87.92
2019-03-03T20:35:45.667Z,87.87
2019-03-03T20:36:53.006Z,87.60
2019-03-03T20:37:57.256Z,87.62
2019-03-03T20:39:07.298Z,87.90
2019-03-03T20:40:16.453Z,87.74
2019-03-03T20:41:23.173Z,87.61
2019-03-03T20:42:27.385Z,87.37
2019-03-03T20:43:31.634Z,87.61
2019-03-03T20:44:36.278Z,87.38
2019-03-03T20:45:40.545Z,87.30
2019-03-03T20:46:44.800Z,87.48
2019-03-03T20:47:49.041Z,87.35
2019-03-03T20:48:56.363Z,87.71
2019-03-03T20:50:05.138Z,87.79
2019-03-03T20:51:09.464Z,87.59
2019-03-03T20:52:14.091Z,87.64
2019-03-03T20:53:19.465Z,87.72
2019-03-03T20:54:24.162Z,87.05
2019-03-03T20:55:32.735Z,87.30
2019-03-03T20:56:36.994Z,87.45
2019-03-03T20:57:41.550Z,87.26
2019-03-03T20:58:46.120Z,87.37
2019-03-03T20:59:50.393Z,87.45
2019-03-03T21:00:54.646Z,87.24
2019-03-03T21:01:58.899Z,87.34
2019-03-03T21:03:03.148Z,87.38
2019-03-03T21:04:07.878Z,87.25
2019-03-03T21:05:15.432Z,86.97
2019-03-03T21:06:19.844Z,86.71
2019-03-03T21:07:24.563Z,86.88
2019-03-03T21:08:28.828Z,86.97
2019-03-03T21:09:35.963Z,86.94
2019-03-03T21:10:40.553Z,87.11
2019-03-03T21:11:44.813Z,87.21
2019-03-03T21:12:49.469Z,86.67
2019-03-03T21:13:53.726Z,86.90
2019-03-03T21:15:01.515Z,86.61
2019-03-03T21:16:09.418Z,86.46
2019-03-03T21:17:14.067Z,86.33
2019-03-03T21:18:18.685Z,86.69
2019-03-03T21:19:25.967Z,86.65
2019-03-03T21:20:30.224Z,86.86
2019-03-03T21:21:34.474Z,86.23
2019-03-03T21:22:38.876Z,86.08
2019-03-03T21:23:43.601Z,85.83
2019-03-03T21:24:49.282Z,85.84
2019-03-03T21:25:54.696Z,85.28
2019-03-03T21:26:58.962Z,85.33
2019-03-03T21:28:03.246Z,85.76
2019-03-03T21:29:07.500Z,85.65
2019-03-03T21:30:16.641Z,85.68
2019-03-03T21:31:20.909Z,85.50
2019-03-03T21:32:25.548Z,85.86
2019-03-03T21:33:29.812Z,86.00
2019-03-03T21:34:35.589Z,85.98
2019-03-03T21:35:42.752Z,86.03
2019-03-03T21:36:47.008Z,85.71
2019-03-03T21:37:51.259Z,85.44
2019-03-03T21:38:58.494Z,85.17
2019-03-03T21:40:03.111Z,85.39
2019-03-03T21:41:10.502Z,85.34
2019-03-03T21:42:14.765Z,85.47
2019-03-03T21:43:21.008Z,85.31
2019-03-03T21:44:25.360Z,85.27
2019-03-03T21:45:30.441Z,85.46
2019-03-03T21:46:34.969Z,85.46
2019-03-03T21:47:39.754Z,85.45
2019-03-03T21:48:44.006Z,85.48
2019-03-03T21:49:50.966Z,85.60
2019-03-03T21:50:55.870Z,85.10
2019-03-03T21:52:00.140Z,85.34
2019-03-03T21:53:07.578Z,85.28
2019-03-03T21:54:12.273Z,85.18
2019-03-03T21:55:16.550Z,85.53
2019-03-03T21:56:20.793Z,85.15
2019-03-03T21:57:25.359Z,85.19
2019-03-03T21:58:29.608Z,85.50
2019-03-03T21:59:33.866Z,84.94
2019-03-03T22:00:40.431Z,84.49
2019-03-03T22:01:44.700Z,84.59
2019-03-03T22:02:48.951Z,84.60
2019-03-03T22:03:53.609Z,84.52
2019-03-03T22:05:00.536Z,84.25
2019-03-03T22:06:06.774Z,84.65
2019-03-03T22:07:11.037Z,84.35
2019-03-03T22:08:15.311Z,84.41
2019-03-03T22:09:19.588Z,84.36
2019-03-03T22:10:28.895Z,85.02
2019-03-03T22:11:33.169Z,84.27
2019-03-03T22:12:37.802Z,84.26
2019-03-03T22:13:44.798Z,84.38
2019-03-03T22:14:49.081Z,84.02
2019-03-03T22:15:53.446Z,84.07
2019-03-03T22:17:00.907Z,84.24
2019-03-03T22:18:09.598Z,83.92
2019-03-03T22:19:14.294Z,84.00
2019-03-03T22:20:21.948Z,84.18
2019-03-03T22:21:26.223Z,83.79
2019-03-03T22:22:30.483Z,83.62
2019-03-03T22:23:37.782Z,83.71
2019-03-03T22:24:42.091Z,83.24
2019-03-03T22:25:49.763Z,83.80
2019-03-03T22:26:54.036Z,84.13
2019-03-03T22:27:58.614Z,83.96
2019-03-03T22:29:06.474Z,84.45
2019-03-03T22:30:15.978Z,85.27
2019-03-03T22:31:20.373Z,85.32
2019-03-03T22:32:26.168Z,85.71
2019-03-03T22:33:31.109Z,85.99
2019-03-03T22:34:35.344Z,86.09
2019-03-03T22:35:42.546Z,86.57
2019-03-03T22:36:49.711Z,86.87
2019-03-03T22:37:57.193Z,86.18
2019-03-03T22:39:01.830Z,86.84
2019-03-03T22:40:13.035Z,86.97
2019-03-03T22:41:21.940Z,87.21
2019-03-03T22:42:26.198Z,87.12
2019-03-03T22:43:30.451Z,87.23
2019-03-03T22:44:39.311Z,87.55
2019-03-03T22:45:43.574Z,87.25
2019-03-03T22:46:47.834Z,87.88
2019-03-03T22:47:52.099Z,87.61
2019-03-03T22:48:56.341Z,87.42
2019-03-03T22:50:03.483Z,87.36
2019-03-03T22:51:08.311Z,87.30
2019-03-03T22:52:12.683Z,87.85
2019-03-03T22:53:19.684Z,87.99
2019-03-03T22:54:24.045Z,87.81
2019-03-03T22:55:28.305Z,87.97
2019-03-03T22:56:35.419Z,88.15
2019-03-03T22:57:40.982Z,87.38
2019-03-03T22:58:51.717Z,87.73
2019-03-03T22:59:55.956Z,88.06
2019-03-03T23:01:04.375Z,88.07
2019-03-03T23:02:10.048Z,87.89
2019-03-03T23:03:30.887Z,87.98
2019-03-03T23:04:56.536Z,87.68
2019-03-03T23:06:22.714Z,87.96
2019-03-03T23:07:39.021Z,88.00
2019-03-03T23:09:11.309Z,87.86
2019-03-03T23:10:35.709Z,87.22
2019-03-03T23:12:01.054Z,87.29
2019-03-03T23:13:35.261Z,87.43
2019-03-03T23:14:48.382Z,87.47
2019-03-03T23:16:01.686Z,87.57
2019-03-03T23:17:27.308Z,87.21
2019-03-03T23:18:40.885Z,87.66
2019-03-03T23:20:09.512Z,87.48
2019-03-03T23:21:26.800Z,87.49
2019-03-03T23:23:09.624Z,87.18
2019-03-03T23:24:51.279Z,87.30
2019-03-03T23:25:56.006Z,87.51
2019-03-03T23:27:00.301Z,87.04
2019-03-03T23:28:07.790Z,87.25
2019-03-03T23:29:12.011Z,87.22
2019-03-03T23:30:16.271Z,87.17
2019-03-03T23:31:23.429Z,86.49
2019-03-03T23:32:30.419Z,86.66
2019-03-03T23:33:37.687Z,86.38
2019-03-03T23:34:41.934Z,86.79
2019-03-03T23:35:46.574Z,86.72
2019-03-03T23:36:50.808Z,86.60
2019-03-03T23:37:55.095Z,86.51
2019-03-03T23:38:59.397Z,86.29
2019-03-03T23:40:04.949Z,86.23
2019-03-03T23:41:09.214Z,86.43
2019-03-03T23:42:13.460Z,86.20
2019-03-03T23:43:17.732Z,86.08
2019-03-03T23:44:26.075Z,86.33
2019-03-03T23:45:33.355Z,86.66
2019-03-03T23:46:37.638Z,86.54
2019-03-03T23:47:44.598Z,86.70
2019-03-03T23:48:48.865Z,86.59
2019-03-03T23:49:56.377Z,85.77
2019-03-03T23:51:01.004Z,85.99
2019-03-03T23:52:05.696Z,86.12
2019-03-03T23:53:09.970Z,85.75
2019-03-03T23:54:16.897Z,85.55
2019-03-03T23:55:24.540Z,85.69
2019-03-03T23:56:31.957Z,85.77
2019-03-03T23:57:39.226Z,85.29
2019-03-03T23:58:46.230Z,85.44
2019-03-03T23:59:50.477Z,85.39
